createdAt,value
2023-03-21T00:34:14.208Z,0
2023-03-21T00:36:07.639Z,0
2023-03-21T00:38:14.597Z,0
2023-03-21T00:40:50.071Z,0
2023-03-21T00:41:54.191Z,0
2023-03-21T00:42:57.426Z,0
2023-03-21T00:44:00.201Z,0
2023-03-21T00:46:05.912Z,0
2023-03-21T00:48:14.759Z,0
2023-03-21T00:50:22.714Z,0
2023-03-21T00:51:25.453Z,0
2023-03-21T00:52:42.846Z,0
2023-03-21T00:53:46.200Z,0
2023-03-21T00:55:52.331Z,0
2023-03-21T00:58:04.500Z,0
2023-03-21T01:00:10.940Z,0
2023-03-21T01:01:14.460Z,0
2023-03-21T01:03:27.399Z,0
2023-03-21T01:04:30.517Z,0
2023-03-21T01:05:34.199Z,0
2023-03-21T01:07:40.473Z,0
2023-03-21T01:08:55.329Z,0
2023-03-21T01:09:58.414Z,0
2023-03-21T01:11:01.335Z,0
2023-03-21T01:13:06.428Z,0
2023-03-21T01:14:25.252Z,0
2023-03-21T01:15:28.550Z,0
2023-03-21T01:16:33.058Z,0
2023-03-21T01:17:36.371Z,0
2023-03-21T01:18:39.807Z,0
2023-03-21T01:19:54.579Z,0
2023-03-21T01:20:58.085Z,0
2023-03-21T01:22:01.285Z,0
2023-03-21T01:23:04.633Z,0
2023-03-21T01:24:07.702Z,0
2023-03-21T01:25:25.022Z,0
2023-03-21T01:26:27.852Z,0
2023-03-21T01:27:31.862Z,0
2023-03-21T01:28:34.680Z,0
2023-03-21T01:29:37.838Z,0
2023-03-21T01:31:47.946Z,0
2023-03-21T01:33:52.958Z,0
2023-03-21T01:34:56.380Z,0
2023-03-21T01:36:18.781Z,0
2023-03-21T01:37:26.417Z,0
2023-03-21T01:39:32.957Z,0
2023-03-21T01:41:46.448Z,0
2023-03-21T01:43:51.437Z,0
2023-03-21T01:44:55.152Z,0
2023-03-21T01:47:14.587Z,0
2023-03-21T01:48:18.850Z,0
2023-03-21T01:49:22.339Z,0
2023-03-21T01:50:25.409Z,0
2023-03-21T01:52:40.817Z,0
2023-03-21T01:54:47.264Z,0
2023-03-21T01:55:50.719Z,0
2023-03-21T01:58:09.208Z,0
2023-03-21T02:00:15.180Z,0
2023-03-21T02:02:21.967Z,0
2023-03-21T02:03:38.784Z,0
2023-03-21T02:04:41.654Z,0
2023-03-21T02:05:44.706Z,0
2023-03-21T02:07:51.298Z,0
2023-03-21T02:09:57.017Z,0
2023-03-21T02:11:00.286Z,0
2023-03-21T02:13:06.840Z,0
2023-03-21T02:14:30.129Z,0
2023-03-21T02:15:33.203Z,0
2023-03-21T02:17:40.183Z,0
2023-03-21T02:18:43.793Z,0
2023-03-21T02:19:55.583Z,0
2023-03-21T02:20:59.270Z,0
2023-03-21T02:23:06.629Z,0
2023-03-21T02:24:09.092Z,0
2023-03-21T02:25:24.240Z,0
2023-03-21T02:27:04.191Z,0
2023-03-21T02:28:07.986Z,0
2023-03-21T02:29:11.373Z,0
2023-03-21T02:30:53.485Z,0
2023-03-21T02:32:38.878Z,0
2023-03-21T02:33:42.740Z,0
2023-03-21T02:34:46.350Z,0
2023-03-21T02:36:15.719Z,0
2023-03-21T02:37:38.922Z,0
2023-03-21T02:38:45.704Z,0
2023-03-21T02:40:51.514Z,0
2023-03-21T02:41:53.829Z,0
2023-03-21T02:43:22.840Z,0
2023-03-21T02:44:27.408Z,0
2023-03-21T02:47:07.709Z,0
2023-03-21T02:48:51.930Z,0
2023-03-21T02:49:55.154Z,0
2023-03-21T02:52:40.666Z,0
2023-03-21T02:53:44.916Z,0
2023-03-21T02:54:50.507Z,0
2023-03-21T02:56:56.899Z,0
2023-03-21T02:58:15.057Z,0
2023-03-21T02:59:17.526Z,0
2023-03-21T03:00:20.342Z,0
2023-03-21T03:01:23.712Z,0
2023-03-21T03:02:26.438Z,0
2023-03-21T03:03:36.489Z,0
2023-03-21T03:04:39.747Z,0
2023-03-21T03:05:42.606Z,0
2023-03-21T03:06:45.607Z,0
2023-03-21T03:07:48.665Z,0
2023-03-21T03:09:05.203Z,0
2023-03-21T03:10:09.260Z,0
2023-03-21T03:11:12.002Z,0
2023-03-21T03:13:17.910Z,0
2023-03-21T03:15:05.303Z,0
2023-03-21T03:16:08.622Z,0
2023-03-21T03:17:10.907Z,0
2023-03-21T03:19:16.430Z,0
2023-03-21T03:21:22.770Z,0
2023-03-21T03:22:26.172Z,0
2023-03-21T03:24:33.838Z,0
2023-03-21T03:25:45.433Z,0
2023-03-21T03:26:48.835Z,0
2023-03-21T03:27:52.853Z,0
2023-03-21T03:29:58.746Z,0
2023-03-21T03:31:14.709Z,0
2023-03-21T03:32:18.465Z,0
2023-03-21T03:33:21.483Z,0
2023-03-21T03:35:27.925Z,0
2023-03-21T03:37:38.927Z,0
2023-03-21T03:38:42.066Z,0
2023-03-21T03:40:49.731Z,0
2023-03-21T03:42:29.948Z,0
2023-03-21T03:43:33.245Z,0
2023-03-21T03:45:39.814Z,0
2023-03-21T03:47:59.814Z,0
2023-03-21T03:49:03.294Z,0
2023-03-21T03:50:07.026Z,0
2023-03-21T03:51:09.315Z,0
2023-03-21T03:52:12.669Z,0
2023-03-21T03:53:20.610Z,0
2023-03-21T03:54:23.669Z,0
2023-03-21T03:56:31.496Z,0
2023-03-21T03:58:48.141Z,0
2023-03-21T03:59:51.715Z,0
2023-03-21T04:00:54.747Z,0
2023-03-21T04:01:57.947Z,0
2023-03-21T04:04:15.481Z,0
2023-03-21T04:06:20.637Z,0
2023-03-21T04:07:24.089Z,0
2023-03-21T04:09:47.123Z,0
2023-03-21T04:11:54.160Z,0
2023-03-21T04:13:59.976Z,0
2023-03-21T04:15:13.085Z,0
2023-03-21T04:16:16.428Z,0
2023-03-21T04:17:19.537Z,0
2023-03-21T04:19:24.278Z,0
2023-03-21T04:20:38.996Z,0
2023-03-21T04:21:42.713Z,0
2023-03-21T04:23:49.043Z,0
2023-03-21T04:24:52.101Z,0
2023-03-21T04:27:03.640Z,0
2023-03-21T04:29:10.055Z,0
2023-03-21T04:31:28.641Z,0
2023-03-21T04:32:31.992Z,0
2023-03-21T04:33:34.959Z,0
2023-03-21T04:34:37.936Z,0
2023-03-21T04:36:44.609Z,0
2023-03-21T04:37:47.703Z,0
2023-03-21T04:38:50.489Z,0
2023-03-21T04:39:53.659Z,0
2023-03-21T04:42:00.141Z,0
2023-03-21T04:44:06.671Z,0
2023-03-21T04:45:08.855Z,0
2023-03-21T04:47:15.196Z,0
2023-03-21T04:49:21.337Z,0
2023-03-21T04:51:28.129Z,0
2023-03-21T04:52:31.228Z,0
2023-03-21T04:54:38.037Z,0
2023-03-21T04:56:44.101Z,0
2023-03-21T04:58:50.930Z,0
2023-03-21T04:59:53.717Z,0
2023-03-21T05:02:00.314Z,0
2023-03-21T05:04:06.923Z,0
2023-03-21T05:06:12.626Z,0
2023-03-21T05:07:16.325Z,0
2023-03-21T05:09:23.180Z,0
2023-03-21T05:11:29.252Z,0
2023-03-21T05:13:35.639Z,1
2023-03-21T05:14:39.061Z,1
2023-03-21T05:16:46.333Z,1
2023-03-21T05:18:51.674Z,1
2023-03-21T05:20:57.926Z,2
2023-03-21T05:22:00.927Z,2
2023-03-21T05:24:07.495Z,2
2023-03-21T05:26:13.670Z,2
2023-03-21T05:28:20.564Z,3
2023-03-21T05:29:24.089Z,3
2023-03-21T05:31:30.804Z,4
2023-03-21T05:33:37.081Z,4
2023-03-21T05:35:43.615Z,4
2023-03-21T05:36:47.090Z,4
2023-03-21T05:38:53.183Z,5
2023-03-21T05:41:00.057Z,5
2023-03-21T05:43:06.681Z,5
2023-03-21T05:44:10.388Z,6
2023-03-21T05:46:17.749Z,7
2023-03-21T05:48:24.164Z,9
2023-03-21T05:50:30.905Z,12
2023-03-21T05:51:33.428Z,12
2023-03-21T05:52:35.867Z,13
2023-03-21T05:53:38.703Z,14
2023-03-21T05:55:44.254Z,15
2023-03-21T05:56:47.888Z,18
2023-03-21T05:57:50.948Z,20
2023-03-21T05:58:53.776Z,21
2023-03-21T06:01:00.429Z,14
2023-03-21T06:02:04.108Z,11
2023-03-21T06:03:07.848Z,11
2023-03-21T06:04:10.466Z,11
2023-03-21T06:06:15.987Z,11
2023-03-21T06:07:18.728Z,11
2023-03-21T06:08:21.835Z,11
2023-03-21T06:09:24.864Z,10
2023-03-21T06:11:31.458Z,10
2023-03-21T06:13:37.639Z,12
2023-03-21T06:14:41.002Z,14
2023-03-21T06:16:47.829Z,16
2023-03-21T06:18:55.001Z,19
2023-03-21T06:21:01.570Z,19
2023-03-21T06:22:04.324Z,19
2023-03-21T06:24:10.121Z,22
2023-03-21T06:26:17.039Z,22
2023-03-21T06:28:23.119Z,21
2023-03-21T06:29:26.473Z,23
2023-03-21T06:31:32.903Z,23
2023-03-21T06:33:39.447Z,22
2023-03-21T06:35:46.489Z,24
2023-03-21T06:36:49.266Z,25
2023-03-21T06:38:55.439Z,24
2023-03-21T06:41:00.845Z,27
2023-03-21T06:43:07.133Z,30
2023-03-21T06:44:09.869Z,29
2023-03-21T06:46:16.041Z,20
2023-03-21T06:48:23.637Z,23
2023-03-21T06:50:30.271Z,27
2023-03-21T06:51:34.001Z,28
2023-03-21T06:53:40.596Z,29
2023-03-21T06:55:47.931Z,29
2023-03-21T06:57:55.126Z,26
2023-03-21T06:58:57.953Z,28
2023-03-21T07:00:01.620Z,30
2023-03-21T07:01:05.500Z,30
2023-03-21T07:03:12.087Z,30
2023-03-21T07:05:19.917Z,33
2023-03-21T07:06:23.021Z,34
2023-03-21T07:07:26.300Z,34
2023-03-21T07:08:30.150Z,32
2023-03-21T07:10:36.110Z,33
2023-03-21T07:12:43.032Z,47
2023-03-21T07:13:46.402Z,56
2023-03-21T07:15:53.456Z,42
2023-03-21T07:17:59.647Z,35
2023-03-21T07:20:06.295Z,30
2023-03-21T07:21:10.393Z,30
2023-03-21T07:23:16.979Z,32
2023-03-21T07:25:22.950Z,39
2023-03-21T07:27:28.565Z,41
2023-03-21T07:28:31.946Z,41
2023-03-21T07:30:38.798Z,38
2023-03-21T07:32:45.512Z,41
2023-03-21T07:34:51.840Z,43
2023-03-21T07:35:55.488Z,47
2023-03-21T07:38:02.046Z,40
2023-03-21T07:40:08.960Z,45
2023-03-21T07:42:14.856Z,39
2023-03-21T07:45:23.977Z,34
2023-03-21T07:47:30.201Z,37
2023-03-21T07:49:37.781Z,35
2023-03-21T07:50:41.371Z,35
2023-03-21T07:52:48.638Z,37
2023-03-21T07:54:55.767Z,34
2023-03-21T07:57:02.297Z,40
2023-03-21T07:58:05.036Z,43
2023-03-21T08:00:11.483Z,42
2023-03-21T08:02:18.574Z,42
2023-03-21T08:04:25.578Z,47
2023-03-21T08:05:28.817Z,48
2023-03-21T08:07:36.466Z,46
2023-03-21T08:09:43.088Z,48
2023-03-21T08:11:50.570Z,48
2023-03-21T08:12:53.948Z,54
2023-03-21T08:15:03.362Z,66
2023-03-21T08:17:10.731Z,60
2023-03-21T08:19:17.459Z,62
2023-03-21T08:20:20.458Z,61
2023-03-21T08:21:24.190Z,65
2023-03-21T08:22:28.255Z,71
2023-03-21T08:24:35.139Z,81
2023-03-21T08:26:44.272Z,63
2023-03-21T08:27:47.692Z,62
2023-03-21T08:28:51.712Z,63
2023-03-21T08:29:55.183Z,66
2023-03-21T08:32:02.114Z,56
2023-03-21T08:33:04.909Z,55
2023-03-21T08:34:08.170Z,54
2023-03-21T08:35:11.289Z,54
2023-03-21T08:37:18.614Z,62
2023-03-21T08:39:26.451Z,58
2023-03-21T08:40:30.495Z,53
2023-03-21T08:42:36.508Z,53
2023-03-21T08:44:43.189Z,48
2023-03-21T08:46:49.365Z,56
2023-03-21T08:47:53.017Z,57
2023-03-21T08:50:01.221Z,54
2023-03-21T08:52:07.956Z,52
2023-03-21T08:54:15.169Z,51
2023-03-21T08:55:18.638Z,49
2023-03-21T08:57:24.748Z,50
2023-03-21T08:59:30.776Z,56
2023-03-21T09:01:37.936Z,60
2023-03-21T09:02:41.000Z,55
2023-03-21T09:04:47.999Z,53
2023-03-21T09:06:54.444Z,57
2023-03-21T09:09:00.937Z,74
2023-03-21T09:10:24.746Z,79
2023-03-21T09:11:28.748Z,71
2023-03-21T09:12:31.820Z,64
2023-03-21T09:14:39.244Z,54
2023-03-21T09:16:46.348Z,60
2023-03-21T09:17:49.472Z,62
2023-03-21T09:18:52.896Z,62
2023-03-21T09:19:56.673Z,61
2023-03-21T09:22:03.767Z,78
2023-03-21T09:23:06.561Z,71
2023-03-21T09:24:09.585Z,93
2023-03-21T09:25:13.436Z,86
2023-03-21T09:27:21.621Z,71
2023-03-21T09:29:27.837Z,67
2023-03-21T09:30:31.718Z,66
2023-03-21T09:32:37.889Z,70
2023-03-21T09:34:43.911Z,74
2023-03-21T09:36:49.997Z,65
2023-03-21T09:37:53.187Z,70
2023-03-21T09:40:00.396Z,79
2023-03-21T09:42:07.662Z,90
2023-03-21T09:43:11.451Z,86
2023-03-21T09:45:18.638Z,77
2023-03-21T09:46:22.591Z,80
2023-03-21T09:48:30.637Z,75
2023-03-21T09:50:37.159Z,75
2023-03-21T09:51:40.522Z,74
2023-03-21T09:53:46.952Z,74
2023-03-21T09:55:53.285Z,72
2023-03-21T09:56:56.636Z,73
2023-03-21T09:58:00.124Z,63
2023-03-21T09:59:03.824Z,66
2023-03-21T10:01:10.296Z,71
2023-03-21T10:02:13.769Z,70
2023-03-21T10:04:20.786Z,68
2023-03-21T10:06:27.678Z,64
2023-03-21T10:07:30.881Z,73
2023-03-21T10:09:37.253Z,73
2023-03-21T10:11:45.405Z,71
2023-03-21T10:12:48.798Z,75
2023-03-21T10:13:52.545Z,73
2023-03-21T10:15:00.110Z,71
2023-03-21T10:17:07.080Z,73
2023-03-21T10:19:13.841Z,73
2023-03-21T10:20:17.684Z,68
2023-03-21T10:22:05.510Z,65
2023-03-21T10:24:11.878Z,63
2023-03-21T10:25:15.276Z,61
2023-03-21T10:27:26.023Z,57
2023-03-21T10:28:53.916Z,60
2023-03-21T10:29:57.526Z,65
2023-03-21T10:32:04.797Z,62
2023-03-21T10:33:08.394Z,67
2023-03-21T10:35:14.851Z,60
2023-03-21T10:37:21.486Z,62
2023-03-21T10:39:27.151Z,58
2023-03-21T10:40:30.644Z,68
2023-03-21T10:42:37.874Z,75
2023-03-21T10:44:44.604Z,78
2023-03-21T10:45:48.694Z,71
2023-03-21T10:47:58.730Z,64
2023-03-21T10:50:13.216Z,68
2023-03-21T10:52:20.055Z,66
2023-03-21T10:53:23.140Z,84
2023-03-21T10:54:26.796Z,86
2023-03-21T10:55:29.789Z,83
2023-03-21T10:57:35.974Z,99
2023-03-21T10:58:39.310Z,95
2023-03-21T11:00:46.480Z,75
2023-03-21T11:02:54.884Z,67
2023-03-21T11:05:02.334Z,78
2023-03-21T11:06:05.123Z,79
2023-03-21T11:08:12.645Z,86
2023-03-21T11:09:15.467Z,79
2023-03-21T11:10:30.980Z,81
2023-03-21T11:11:35.257Z,98
2023-03-21T11:13:42.010Z,75
2023-03-21T11:15:48.230Z,98
2023-03-21T11:16:52.123Z,77
2023-03-21T11:18:59.635Z,85
2023-03-21T11:21:06.537Z,83
2023-03-21T11:22:10.225Z,91
2023-03-21T11:24:15.412Z,82
2023-03-21T11:26:22.148Z,94
2023-03-21T11:28:28.941Z,96
2023-03-21T11:29:31.688Z,93
2023-03-21T11:31:38.635Z,110
2023-03-21T11:33:45.118Z,96
2023-03-21T11:34:48.244Z,93
2023-03-21T11:36:55.248Z,111
2023-03-21T11:39:02.173Z,103
2023-03-21T11:40:05.887Z,119
2023-03-21T11:42:12.701Z,116
2023-03-21T11:43:16.331Z,89
2023-03-21T11:44:19.615Z,87
2023-03-21T11:45:23.572Z,86
2023-03-21T11:47:30.338Z,91
2023-03-21T11:48:33.415Z,85
2023-03-21T11:50:40.698Z,75
2023-03-21T11:52:46.787Z,71
2023-03-21T11:53:50.469Z,74
2023-03-21T11:55:57.105Z,69
2023-03-21T11:58:17.041Z,77
2023-03-21T11:59:20.336Z,67
2023-03-21T12:01:26.137Z,60
2023-03-21T12:03:51.660Z,61
2023-03-21T12:04:58.457Z,55
2023-03-21T12:06:02.507Z,59
2023-03-21T12:07:05.640Z,62
2023-03-21T12:09:12.585Z,60
2023-03-21T12:10:16.499Z,57
2023-03-21T12:12:41.264Z,71
2023-03-21T12:13:43.995Z,72
2023-03-21T12:15:56.049Z,62
2023-03-21T12:18:02.123Z,62
2023-03-21T12:19:05.821Z,62
2023-03-21T12:21:13.807Z,61
2023-03-21T12:22:17.158Z,65
2023-03-21T12:23:20.587Z,63
2023-03-21T12:24:24.058Z,59
2023-03-21T12:26:30.884Z,63
2023-03-21T12:27:34.965Z,76
2023-03-21T12:29:41.861Z,66
2023-03-21T12:30:44.905Z,80
2023-03-21T12:32:52.550Z,81
2023-03-21T12:33:56.442Z,86
2023-03-21T12:36:04.554Z,60
2023-03-21T12:38:11.422Z,53
2023-03-21T12:39:14.180Z,48
2023-03-21T12:41:20.794Z,57
2023-03-21T12:43:26.865Z,50
2023-03-21T12:44:30.403Z,60
2023-03-21T12:45:50.695Z,54
2023-03-21T12:46:55.478Z,60
2023-03-21T12:49:03.816Z,59
2023-03-21T12:50:07.186Z,45
2023-03-21T12:52:14.917Z,39
2023-03-21T12:54:21.082Z,39
2023-03-21T12:55:24.458Z,43
2023-03-21T12:57:31.607Z,51
2023-03-21T12:59:38.710Z,46
2023-03-21T13:01:47.256Z,49
2023-03-21T13:02:50.690Z,55
2023-03-21T13:05:02.284Z,66
2023-03-21T13:06:05.744Z,78
2023-03-21T13:07:09.339Z,77
2023-03-21T13:08:13.317Z,73
2023-03-21T13:09:38.878Z,79
2023-03-21T13:10:42.891Z,87
2023-03-21T13:11:46.397Z,82
2023-03-21T13:12:49.488Z,69
2023-03-21T13:13:52.572Z,63
2023-03-21T13:16:00.483Z,59
2023-03-21T13:17:03.993Z,56
2023-03-21T13:19:09.888Z,47
2023-03-21T13:21:17.300Z,40
2023-03-21T13:22:20.823Z,36
2023-03-21T13:24:28.770Z,33
2023-03-21T13:26:34.060Z,34
2023-03-21T13:27:37.435Z,29
2023-03-21T13:28:40.718Z,26
2023-03-21T13:29:43.909Z,24
2023-03-21T13:31:58.769Z,22
2023-03-21T13:33:02.135Z,22
2023-03-21T13:35:08.016Z,22
2023-03-21T13:37:16.194Z,24
2023-03-21T13:38:19.703Z,31
2023-03-21T13:39:23.682Z,34
2023-03-21T13:40:26.218Z,38
2023-03-21T13:42:32.724Z,58
2023-03-21T13:43:35.522Z,59
2023-03-21T13:45:43.172Z,62
2023-03-21T13:46:57.064Z,54
2023-03-21T13:48:00.470Z,61
2023-03-21T13:49:03.959Z,75
2023-03-21T13:51:11.726Z,76
2023-03-21T13:52:15.861Z,80
2023-03-21T13:54:23.678Z,71
2023-03-21T13:56:30.058Z,56
2023-03-21T13:58:37.363Z,49
2023-03-21T13:59:40.296Z,45
2023-03-21T14:01:47.439Z,33
2023-03-21T14:02:50.738Z,35
2023-03-21T14:05:09.229Z,35
2023-03-21T14:07:16.466Z,37
2023-03-21T14:08:39.784Z,39
2023-03-21T14:09:43.660Z,31
2023-03-21T14:10:47.401Z,33
2023-03-21T14:12:53.593Z,30
2023-03-21T14:15:18.803Z,28
2023-03-21T14:17:25.417Z,27
2023-03-21T14:18:57.390Z,41
2023-03-21T14:20:00.999Z,41
2023-03-21T14:21:25.105Z,37
2023-03-21T14:22:28.773Z,38
2023-03-21T14:23:32.639Z,41
2023-03-21T14:25:51.601Z,34
2023-03-21T14:27:59.598Z,28
2023-03-21T14:29:26.852Z,26
2023-03-21T14:30:33.082Z,22
2023-03-21T14:31:36.887Z,19
2023-03-21T14:33:44.080Z,17
2023-03-21T14:35:50.567Z,19
2023-03-21T14:37:01.250Z,20
2023-03-21T14:39:08.777Z,24
2023-03-21T14:41:16.582Z,30
2023-03-21T14:43:23.632Z,39
2023-03-21T14:44:26.940Z,43
2023-03-21T14:46:34.127Z,36
2023-03-21T14:48:40.121Z,31
2023-03-21T14:49:43.569Z,32
2023-03-21T14:51:49.847Z,34
2023-03-21T14:53:56.876Z,36
2023-03-21T14:55:00.406Z,33
2023-03-21T14:57:07.804Z,26
2023-03-21T14:59:14.798Z,23
2023-03-21T15:01:21.133Z,19
2023-03-21T15:02:25.079Z,19
2023-03-21T15:04:31.433Z,18
2023-03-21T15:06:37.317Z,20
2023-03-21T15:07:41.326Z,21
2023-03-21T15:09:47.834Z,21
2023-03-21T15:11:10.291Z,23
2023-03-21T15:12:14.592Z,22
2023-03-21T15:14:21.602Z,19
2023-03-21T15:15:29.454Z,19
2023-03-21T15:16:33.302Z,15
2023-03-21T15:17:37.018Z,16
2023-03-21T15:19:44.559Z,24
2023-03-21T15:21:50.917Z,17
2023-03-21T15:22:54.288Z,21
2023-03-21T15:25:00.513Z,27
2023-03-21T15:27:07.383Z,31
2023-03-21T15:28:11.276Z,25
2023-03-21T15:29:15.017Z,20
2023-03-21T15:30:17.750Z,15
2023-03-21T15:32:25.673Z,13
2023-03-21T15:34:31.717Z,11
2023-03-21T15:35:35.713Z,11
2023-03-21T15:37:42.545Z,11
2023-03-21T15:39:48.772Z,13
2023-03-21T15:40:51.629Z,12
2023-03-21T15:42:58.310Z,8
2023-03-21T15:45:05.406Z,10
2023-03-21T15:46:08.203Z,10
2023-03-21T15:48:15.415Z,22
2023-03-21T15:49:18.796Z,28
2023-03-21T15:51:25.345Z,19
2023-03-21T15:53:31.163Z,27
2023-03-21T15:54:34.064Z,24
2023-03-21T15:56:39.710Z,20
2023-03-21T15:58:47.523Z,24
2023-03-21T15:59:50.945Z,25
2023-03-21T16:02:02.416Z,23
2023-03-21T16:04:09.255Z,23
2023-03-21T16:05:11.972Z,22
2023-03-21T16:07:18.131Z,27
2023-03-21T16:09:24.417Z,27
2023-03-21T16:10:27.471Z,22
2023-03-21T16:11:30.599Z,23
2023-03-21T16:12:33.597Z,19
2023-03-21T16:14:41.511Z,16
2023-03-21T16:15:45.345Z,17
2023-03-21T16:16:49.193Z,16
2023-03-21T16:17:52.828Z,15
2023-03-21T16:19:59.696Z,15
2023-03-21T16:22:06.103Z,13
2023-03-21T16:23:08.570Z,14
2023-03-21T16:25:17.675Z,14
2023-03-21T16:27:24.590Z,13
2023-03-21T16:29:31.082Z,12
2023-03-21T16:30:33.602Z,13
2023-03-21T16:32:42.002Z,12
2023-03-21T16:34:47.686Z,11
2023-03-21T16:36:54.477Z,11
2023-03-21T16:37:57.600Z,10
2023-03-21T16:40:04.853Z,9
2023-03-21T16:42:10.674Z,9
2023-03-21T16:44:17.703Z,10
2023-03-21T16:45:21.320Z,10
2023-03-21T16:47:29.422Z,8
2023-03-21T16:49:35.703Z,9
2023-03-21T16:51:44.268Z,7
2023-03-21T16:52:47.534Z,7
2023-03-21T16:54:53.923Z,6
2023-03-21T16:57:00.006Z,4
2023-03-21T16:59:06.726Z,4
2023-03-21T17:00:10.478Z,4
2023-03-21T17:02:16.717Z,5
2023-03-21T17:04:24.900Z,5
2023-03-21T17:06:30.883Z,3
2023-03-21T17:07:34.051Z,3
2023-03-21T17:09:40.572Z,2
2023-03-21T17:11:47.460Z,2
2023-03-21T17:13:53.893Z,1
2023-03-21T17:14:57.586Z,1
2023-03-21T17:17:05.880Z,1
2023-03-21T17:19:12.839Z,1
2023-03-21T17:20:16.283Z,1
2023-03-21T17:22:24.044Z,1
2023-03-21T17:24:31.253Z,0
2023-03-21T17:26:37.587Z,0
2023-03-21T17:27:40.322Z,0
2023-03-21T17:29:46.289Z,0
2023-03-21T17:31:53.124Z,0
2023-03-21T17:33:59.623Z,0
2023-03-21T17:35:03.017Z,0
2023-03-21T17:37:09.593Z,0
2023-03-21T17:39:17.177Z,0
2023-03-21T17:40:20.569Z,0
2023-03-21T17:41:24.589Z,0
2023-03-21T17:42:28.036Z,0
2023-03-21T17:44:33.620Z,0
2023-03-21T17:45:37.001Z,0
2023-03-21T17:46:41.476Z,0
2023-03-21T17:47:45.122Z,0
2023-03-21T17:49:52.301Z,0
2023-03-21T17:50:55.851Z,0
2023-03-21T17:51:59.634Z,0
2023-03-21T17:53:02.749Z,0
2023-03-21T17:55:09.644Z,0
2023-03-21T17:56:12.755Z,0
2023-03-21T17:57:16.280Z,0
2023-03-21T17:58:18.852Z,0
2023-03-21T18:00:25.646Z,0
2023-03-21T18:01:29.341Z,0
2023-03-21T18:02:32.685Z,0
2023-03-21T18:03:35.937Z,0
2023-03-21T18:05:43.038Z,0
2023-03-21T18:08:20.264Z,0
2023-03-21T18:10:26.846Z,0
2023-03-21T18:11:30.466Z,0
2023-03-21T18:13:38.418Z,0
2023-03-21T18:15:49.407Z,0
2023-03-21T18:17:55.661Z,0
2023-03-21T18:18:58.652Z,0
2023-03-21T18:21:06.391Z,0
2023-03-21T18:23:14.859Z,0
2023-03-21T18:25:22.410Z,0
2023-03-21T18:26:27.424Z,0
2023-03-21T18:28:12.696Z,0
2023-03-21T18:31:20.324Z,0
2023-03-21T18:32:25.962Z,0
2023-03-21T18:33:29.269Z,0
2023-03-21T18:34:33.044Z,0
2023-03-21T18:35:37.005Z,0
2023-03-21T18:36:43.370Z,0
2023-03-21T18:38:50.021Z,0
2023-03-21T18:40:56.611Z,0
2023-03-21T18:42:02.429Z,0
2023-03-21T18:44:25.761Z,0
2023-03-21T18:45:29.216Z,0
2023-03-21T18:46:32.891Z,0
2023-03-21T18:48:39.667Z,0
2023-03-21T18:50:17.334Z,0
2023-03-21T18:51:20.381Z,0
2023-03-21T18:52:23.562Z,0
2023-03-21T18:53:26.999Z,0
2023-03-21T18:54:30.555Z,0
2023-03-21T18:55:54.050Z,0
2023-03-21T18:57:40.498Z,0
2023-03-21T18:58:43.259Z,0
2023-03-21T18:59:46.522Z,0
2023-03-21T19:01:54.012Z,0
2023-03-21T19:03:43.239Z,0
2023-03-21T19:05:32.326Z,0
2023-03-21T19:07:39.711Z,0
2023-03-21T19:10:23.287Z,0
2023-03-21T19:11:26.052Z,0
2023-03-21T19:12:29.449Z,0
2023-03-21T19:14:35.169Z,0
2023-03-21T19:18:57.584Z,0
2023-03-21T19:20:01.135Z,0
2023-03-21T19:22:07.229Z,0
2023-03-21T19:23:12.900Z,0
2023-03-21T19:24:31.799Z,0
2023-03-21T19:25:35.987Z,0
2023-03-21T19:27:42.566Z,0
2023-03-21T19:30:17.315Z,0
2023-03-21T19:32:26.261Z,0
2023-03-21T19:34:32.458Z,0
2023-03-21T19:35:38.069Z,0
2023-03-21T19:36:54.772Z,0
2023-03-21T19:37:58.309Z,0
2023-03-21T19:40:05.302Z,0
2023-03-21T19:42:20.222Z,0
2023-03-21T19:43:54.470Z,0
2023-03-21T19:44:59.532Z,0
2023-03-21T19:47:06.933Z,0
2023-03-21T19:48:10.595Z,0
2023-03-21T19:51:32.679Z,0
2023-03-21T19:52:36.998Z,0
2023-03-21T19:53:40.512Z,0
2023-03-21T19:54:43.601Z,0
2023-03-21T19:55:47.399Z,0
2023-03-21T19:57:54.565Z,0
2023-03-21T20:00:00.484Z,0
2023-03-21T20:01:04.298Z,0
2023-03-21T20:02:39.945Z,0
2023-03-21T20:03:43.487Z,0
2023-03-21T20:05:49.318Z,0
2023-03-21T20:07:55.237Z,0
2023-03-21T20:09:58.601Z,0
2023-03-21T20:11:02.101Z,0
2023-03-21T20:13:09.152Z,0
2023-03-21T20:15:31.591Z,0
2023-03-21T20:16:38.596Z,0
2023-03-21T20:17:41.540Z,0
2023-03-21T20:18:45.212Z,0
2023-03-21T20:20:51.684Z,0
2023-03-21T20:22:20.124Z,0
2023-03-21T20:25:11.448Z,0
2023-03-21T20:26:14.649Z,0
2023-03-21T20:28:30.657Z,0
2023-03-21T20:30:12.472Z,0
2023-03-21T20:31:19.626Z,0
2023-03-21T20:33:25.463Z,0
2023-03-21T20:36:44.710Z,0
2023-03-21T20:37:47.876Z,0
2023-03-21T20:38:51.005Z,0
2023-03-21T20:40:58.316Z,0
2023-03-21T20:45:01.490Z,0
2023-03-21T20:46:05.436Z,0
2023-03-21T20:48:12.213Z,0
2023-03-21T20:49:16.037Z,0
2023-03-21T20:50:21.764Z,0
2023-03-21T20:53:08.377Z,0
2023-03-21T20:54:11.716Z,0
2023-03-21T20:56:18.155Z,0
2023-03-21T20:59:29.761Z,0
2023-03-21T21:00:33.076Z,0
2023-03-21T21:01:36.585Z,0
2023-03-21T21:03:42.492Z,0
2023-03-21T21:05:40.146Z,0
2023-03-21T21:06:43.383Z,0
2023-03-21T21:08:48.931Z,0
2023-03-21T21:09:51.957Z,0
2023-03-21T21:12:11.474Z,0
2023-03-21T21:14:20.448Z,0
2023-03-21T21:16:26.379Z,0
2023-03-21T21:18:09.959Z,0
2023-03-21T21:19:13.545Z,0
2023-03-21T21:20:16.617Z,0
2023-03-21T21:22:22.993Z,0
2023-03-21T21:24:30.596Z,0
2023-03-21T21:26:38.270Z,0
2023-03-21T21:27:41.459Z,0
2023-03-21T21:29:49.292Z,0
2023-03-21T21:31:54.893Z,0
2023-03-21T21:34:01.699Z,0
2023-03-21T21:35:05.052Z,0
2023-03-21T21:37:11.214Z,0
2023-03-21T21:39:17.225Z,0
2023-03-21T21:41:23.492Z,0
2023-03-21T21:42:26.837Z,0
2023-03-21T21:44:33.461Z,0
2023-03-21T21:46:41.119Z,0
2023-03-21T21:48:47.919Z,0
2023-03-21T21:49:51.581Z,0
2023-03-21T21:50:54.659Z,0
2023-03-21T21:51:57.818Z,0
2023-03-21T21:54:03.816Z,0
2023-03-21T21:55:06.678Z,0
2023-03-21T21:57:12.895Z,0
2023-03-21T21:59:19.349Z,0
2023-03-21T22:01:26.033Z,0
2023-03-21T22:02:29.133Z,0
2023-03-21T22:03:32.178Z,0
2023-03-21T22:04:35.216Z,0
2023-03-21T22:06:41.492Z,0
2023-03-21T22:07:44.660Z,0
2023-03-21T22:08:47.511Z,0
2023-03-21T22:09:50.578Z,0
2023-03-21T22:11:57.071Z,0
2023-03-21T22:12:59.864Z,0
2023-03-21T22:14:03.337Z,0
2023-03-21T22:15:06.761Z,0
2023-03-21T22:17:13.594Z,0
2023-03-21T22:18:17.260Z,0
2023-03-21T22:19:20.621Z,0
2023-03-21T22:20:23.360Z,0
2023-03-21T22:22:29.858Z,0
2023-03-21T22:23:33.206Z,0
2023-03-21T22:24:37.272Z,0
2023-03-21T22:25:40.599Z,0
2023-03-21T22:27:47.076Z,0
2023-03-21T22:29:53.441Z,0
2023-03-21T22:30:56.755Z,0
2023-03-21T22:33:11.714Z,0
2023-03-21T22:35:18.874Z,0
2023-03-21T22:37:25.857Z,0
2023-03-21T22:38:29.143Z,0
2023-03-21T22:40:35.987Z,0
2023-03-21T22:42:42.130Z,0
2023-03-21T22:44:48.150Z,0
2023-03-21T22:45:51.877Z,0
2023-03-21T22:47:59.859Z,0
2023-03-21T22:50:07.535Z,0
2023-03-21T22:52:13.483Z,0
2023-03-21T22:53:15.932Z,0
2023-03-21T22:55:22.627Z,0
2023-03-21T22:57:28.453Z,0
2023-03-21T22:59:34.976Z,0
2023-03-21T23:00:39.292Z,0
2023-03-21T23:01:42.812Z,0
2023-03-21T23:02:46.276Z,0
2023-03-21T23:04:54.442Z,0
2023-03-21T23:05:58.501Z,0
2023-03-21T23:07:02.959Z,0
2023-03-21T23:08:06.053Z,0
2023-03-21T23:10:12.655Z,0
2023-03-21T23:12:18.957Z,0
2023-03-21T23:14:25.566Z,0
2023-03-21T23:15:29.236Z,0
2023-03-21T23:17:35.443Z,0
2023-03-21T23:19:43.581Z,0
2023-03-21T23:21:51.427Z,0
2023-03-21T23:22:53.983Z,0
2023-03-21T23:25:00.572Z,0
2023-03-21T23:27:07.462Z,0
2023-03-21T23:29:13.984Z,0
2023-03-21T23:30:17.026Z,0
2023-03-21T23:32:23.085Z,0
2023-03-21T23:34:29.645Z,0
2023-03-21T23:36:36.747Z,0
2023-03-21T23:37:39.766Z,0
2023-03-21T23:39:46.336Z,0
2023-03-21T23:41:51.970Z,0
2023-03-21T23:43:57.643Z,0
2023-03-21T23:45:01.055Z,0
2023-03-21T23:47:07.711Z,0
2023-03-21T23:49:13.803Z,0
2023-03-21T23:51:21.058Z,0
2023-03-21T23:52:25.169Z,0
2023-03-21T23:53:27.963Z,0
2023-03-21T23:54:31.234Z,0
2023-03-21T23:56:37.269Z,0
2023-03-21T23:57:40.456Z,0
2023-03-21T23:58:43.523Z,0
2023-03-21T23:59:47.181Z,0
